2003 MISSING (2003315N09067)


On this page: IBTrACS data - Map and Plots - Positions - Intensities - Original source data

Summary

Start Nov 10
End Nov 18
Basin NI
LMI 80 kt
Sources jtwc_io
newdelhi
In WMO? Yes
Previous storm 2004 BENI (SI)
Previous in basin 2003 MISSING (WP)
Concurrent storms 2004 BENI (SI)
2003 MISSING (NI)
2003 NEPARTAK (WP)
2003 LUPIT (WP)
Next in basin Missing
Next storm 2003 NEPARTAK (WP)

top of page IBTrACS Data: File Access

top of page HURSAT Data: File Access

Image of storm

top of page Plots:

Map of storm track will not appear if FTP is down
Time series of cyclone Maximum Sustained Wind will not appear if FTP is down
Time series of cyclone Minimum Central Pressure will not appear if FTP is down

top of page Track Data:Position

jtwc_io newdelhi
Date Lat Lon Lat Lon
2003-11-10 12:00:00 8.7 67.1
2003-11-10 18:00:00 8.5 66.4
2003-11-11 00:00:00 8.3 65.7
2003-11-11 06:00:00 8.0 65.1
2003-11-11 12:00:00 7.6 64.2
2003-11-11 18:00:00 7.1 63.0
2003-11-12 00:00:00 6.5 61.6
2003-11-12 06:00:00 6.2 60.6 6.5 60.7
2003-11-12 12:00:00 6.1 60.0 6.5 59.5
2003-11-12 18:00:00 6.2 59.4 6.5 59.0
2003-11-13 00:00:00 6.2 58.8 6.5 58.0
2003-11-13 06:00:00 6.2 58.2 6.5 58.0
2003-11-13 12:00:00 6.1 57.6 6.0 57.5
2003-11-13 18:00:00 6.1 57.0 6.0 57.0
2003-11-14 00:00:00 5.9 56.2 6.0 56.5
2003-11-14 06:00:00 5.7 55.7 5.5 55.5
2003-11-14 12:00:00 5.8 55.2 5.5 54.5
2003-11-14 18:00:00 5.9 54.8 5.5 52.0
2003-11-15 00:00:00 6.0 54.6 5.5 51.0
2003-11-15 06:00:00 6.0 54.4 5.5 51.0
2003-11-15 12:00:00 6.0 54.1 5.5 50.5
2003-11-15 18:00:00 6.0 53.8
2003-11-16 00:00:00 5.9 53.5
2003-11-16 06:00:00 5.8 53.2
2003-11-16 12:00:00 5.6 52.8
jtwc_io newdelhi
2003-11-16 18:00:00 5.0 52.3
2003-11-17 00:00:00 4.4 51.7
2003-11-17 06:00:00 3.7 51.5
2003-11-17 12:00:00 3.2 51.5
2003-11-17 18:00:00 2.7 51.6
2003-11-18 00:00:00 2.5 51.8
2003-11-18 06:00:00 2.4 52.0

top of pageTrack Data:Intensity

jtwc_io newdelhi
Date Wind Pres Wind Pres
2003-11-10 12:00:00 15. 1006.
2003-11-10 18:00:00 15. 1006.
2003-11-11 00:00:00 15. 1006.
2003-11-11 06:00:00 15. 1006.
2003-11-11 12:00:00 15. 1006.
2003-11-11 18:00:00 15. 1006.
2003-11-12 00:00:00 20. 1004.
2003-11-12 06:00:00 25. 1002. 25. 1002.
2003-11-12 12:00:00 30. 1000. 30. 1000.
2003-11-12 18:00:00 45. 991. 35. 998.
2003-11-13 00:00:00 55. 984. 35. 998.
2003-11-13 06:00:00 60. 980. 55. 994.
2003-11-13 12:00:00 65. 976. 55. 990.
2003-11-13 18:00:00 70. 972. 55. 990.
2003-11-14 00:00:00 75. 967. 55. 990.
2003-11-14 06:00:00 80. 963. 55. 990.
2003-11-14 12:00:00 65. 976. 45. 994.
2003-11-14 18:00:00 50. 987. 30. 996.
2003-11-15 00:00:00 40. 994. 30. 998.
2003-11-15 06:00:00 30. 1000. 25. 1000.
2003-11-15 12:00:00 30. 1000. 25. 1000.
2003-11-15 18:00:00 30. 1000.
2003-11-16 00:00:00 30. 1000.
2003-11-16 06:00:00 30. 1000.
2003-11-16 12:00:00 30. 1000.
jtwc_io newdelhi
2003-11-16 18:00:00 30. 1000.
2003-11-17 00:00:00 30. 1000.
2003-11-17 06:00:00 30. 1000.
2003-11-17 12:00:00 30. 1000.
2003-11-17 18:00:00 30. 1000.
2003-11-18 00:00:00 25. 1002.
2003-11-18 06:00:00 25. 1002.

top of page Links to source data

Source Source file Format
jtwc_io bio022003.txt ATCF
newdelhi New_Delhi_Tropical_Cyclone_Track_and_Intensity_Current.csv:Line=2028 New Delhi CSV file (from Excel file)